createdAt,value
2018-10-09T00:03:00.000Z,99381
2018-10-09T00:08:00.000Z,99373
2018-10-09T00:13:00.000Z,99371
2018-10-09T00:18:00.000Z,99385
2018-10-09T00:23:00.000Z,99374
2018-10-09T00:28:00.000Z,99367
2018-10-09T00:33:00.000Z,99383
2018-10-09T00:38:00.000Z,99375
2018-10-09T00:43:00.000Z,99378
2018-10-09T00:48:00.000Z,99382
2018-10-09T00:53:00.000Z,99381
2018-10-09T00:58:00.000Z,99370
2018-10-09T01:03:00.000Z,99360
2018-10-09T01:08:00.000Z,99372
2018-10-09T01:13:00.000Z,99373
2018-10-09T01:18:00.000Z,99373
2018-10-09T01:23:00.000Z,99377
2018-10-09T01:28:00.000Z,99368
2018-10-09T01:33:00.000Z,99374
2018-10-09T01:38:00.000Z,99381
2018-10-09T01:43:00.000Z,99376
2018-10-09T01:48:00.000Z,99376
2018-10-09T01:53:00.000Z,99374
2018-10-09T01:58:00.000Z,99371
2018-10-09T02:03:00.000Z,99378
2018-10-09T02:08:00.000Z,99380
2018-10-09T02:13:00.000Z,99384
2018-10-09T02:18:00.000Z,99382
2018-10-09T02:23:00.000Z,99388
2018-10-09T02:28:00.000Z,99389
2018-10-09T02:33:00.000Z,99388
2018-10-09T02:38:00.000Z,99394
2018-10-09T02:43:00.000Z,99399
2018-10-09T02:48:00.000Z,99398
2018-10-09T02:53:00.000Z,99392
2018-10-09T02:58:00.000Z,99394
2018-10-09T03:03:00.000Z,99406
2018-10-09T03:08:00.000Z,99404
2018-10-09T03:13:00.000Z,99399
2018-10-09T03:18:00.000Z,99395
2018-10-09T03:23:00.000Z,99386
2018-10-09T03:28:00.000Z,99390
2018-10-09T03:33:00.000Z,99399
2018-10-09T03:38:00.000Z,99399
2018-10-09T03:43:00.000Z,99397
2018-10-09T03:48:00.000Z,99395
2018-10-09T03:53:00.000Z,99398
2018-10-09T03:58:00.000Z,99402
2018-10-09T04:03:00.000Z,99403
2018-10-09T04:08:00.000Z,99413
2018-10-09T04:14:00.000Z,99401
2018-10-09T04:19:00.000Z,99406
2018-10-09T04:24:00.000Z,99413
2018-10-09T04:29:00.000Z,99407
2018-10-09T04:34:00.000Z,99409
2018-10-09T04:39:00.000Z,99418
2018-10-09T04:44:00.000Z,99409
2018-10-09T04:49:00.000Z,99415
2018-10-09T04:54:00.000Z,99423
2018-10-09T04:59:00.000Z,99419
2018-10-09T05:04:00.000Z,99428
2018-10-09T05:09:00.000Z,99424
2018-10-09T05:14:00.000Z,99430
2018-10-09T05:19:00.000Z,99434
2018-10-09T05:24:00.000Z,99440
2018-10-09T05:29:00.000Z,99459
2018-10-09T05:34:00.000Z,99452
2018-10-09T05:39:00.000Z,99457
2018-10-09T05:44:00.000Z,99451
2018-10-09T05:49:00.000Z,99462
2018-10-09T05:54:00.000Z,99464
2018-10-09T05:59:00.000Z,99472
2018-10-09T06:04:00.000Z,99472
2018-10-09T06:09:00.000Z,99477
2018-10-09T06:14:00.000Z,99484
2018-10-09T06:19:00.000Z,99475
2018-10-09T06:24:00.000Z,99486
2018-10-09T06:29:00.000Z,99492
2018-10-09T06:34:00.000Z,99501
2018-10-09T06:39:00.000Z,99509
2018-10-09T06:44:00.000Z,99492
2018-10-09T06:49:00.000Z,99506
2018-10-09T06:54:00.000Z,99506
2018-10-09T06:59:00.000Z,99506
2018-10-09T07:04:00.000Z,99514
2018-10-09T07:09:00.000Z,99520
2018-10-09T07:14:00.000Z,99514
2018-10-09T07:19:00.000Z,99525
2018-10-09T07:24:00.000Z,99535
2018-10-09T07:29:00.000Z,99524
2018-10-09T07:34:00.000Z,99538
2018-10-09T07:39:00.000Z,99530
2018-10-09T07:44:00.000Z,99530
2018-10-09T07:49:00.000Z,99532
2018-10-09T07:54:00.000Z,99534
2018-10-09T07:59:00.000Z,99540
2018-10-09T08:04:00.000Z,99550
2018-10-09T08:09:00.000Z,99551
2018-10-09T08:14:00.000Z,99549
2018-10-09T08:19:00.000Z,99561
2018-10-09T08:24:00.000Z,99550
2018-10-09T08:29:00.000Z,99545
2018-10-09T08:34:00.000Z,99550
2018-10-09T08:39:00.000Z,99555
2018-10-09T08:44:00.000Z,99560
2018-10-09T08:49:00.000Z,99562
2018-10-09T08:54:00.000Z,99557
2018-10-09T08:59:00.000Z,99559
2018-10-09T09:04:00.000Z,99561
2018-10-09T09:09:00.000Z,99560
2018-10-09T09:14:00.000Z,99562
2018-10-09T09:19:00.000Z,99558
2018-10-09T09:24:00.000Z,99558
2018-10-09T09:29:00.000Z,99564
2018-10-09T09:34:00.000Z,99569
2018-10-09T09:39:00.000Z,99572
2018-10-09T09:44:00.000Z,99571
2018-10-09T09:49:00.000Z,99567
2018-10-09T09:54:00.000Z,99576
2018-10-09T09:59:00.000Z,99590
2018-10-09T10:04:00.000Z,99576
2018-10-09T10:09:00.000Z,99587
2018-10-09T10:15:00.000Z,99588
2018-10-09T10:20:00.000Z,99580
2018-10-09T10:25:00.000Z,99582
2018-10-09T10:30:00.000Z,99576
2018-10-09T10:35:00.000Z,99576
2018-10-09T10:40:00.000Z,99571
2018-10-09T10:45:00.000Z,99564
2018-10-09T10:50:00.000Z,99558
2018-10-09T10:55:00.000Z,99561
2018-10-09T11:00:00.000Z,99557
2018-10-09T11:05:00.000Z,99557
2018-10-09T11:10:00.000Z,99553
2018-10-09T11:15:00.000Z,99548
2018-10-09T11:20:00.000Z,99555
2018-10-09T11:25:00.000Z,99550
2018-10-09T11:30:00.000Z,99546
2018-10-09T11:35:00.000Z,99540
2018-10-09T11:40:00.000Z,99534
2018-10-09T11:45:00.000Z,99537
2018-10-09T11:50:00.000Z,99524
2018-10-09T11:55:00.000Z,99521
2018-10-09T12:00:00.000Z,99519
2018-10-09T12:05:00.000Z,99512
2018-10-09T12:10:00.000Z,99513
2018-10-09T12:15:00.000Z,99510
2018-10-09T12:20:00.000Z,99511
2018-10-09T12:25:00.000Z,99507
2018-10-09T12:30:00.000Z,99508
2018-10-09T12:35:00.000Z,99507
2018-10-09T12:40:00.000Z,99497
2018-10-09T12:45:00.000Z,99501
2018-10-09T12:50:00.000Z,99501
2018-10-09T12:55:00.000Z,99490
2018-10-09T13:00:00.000Z,99497
2018-10-09T13:05:00.000Z,99493
2018-10-09T13:10:00.000Z,99489
2018-10-09T13:15:00.000Z,99490
2018-10-09T13:20:00.000Z,99494
2018-10-09T13:25:00.000Z,99476
2018-10-09T13:30:00.000Z,99469
2018-10-09T13:35:00.000Z,99468
2018-10-09T13:40:00.000Z,99467
2018-10-09T13:45:00.000Z,99453
2018-10-09T13:50:00.000Z,99458
2018-10-09T13:55:00.000Z,99452
2018-10-09T14:00:00.000Z,99448
2018-10-09T14:05:00.000Z,99451
2018-10-09T14:10:00.000Z,99444
2018-10-09T14:15:00.000Z,99437
2018-10-09T14:20:00.000Z,99426
2018-10-09T14:25:00.000Z,99431
2018-10-09T14:30:00.000Z,99429
2018-10-09T14:35:00.000Z,99429
2018-10-09T14:40:00.000Z,99432
2018-10-09T14:45:00.000Z,99433
2018-10-09T14:50:00.000Z,99437
2018-10-09T14:55:00.000Z,99437
2018-10-09T15:00:00.000Z,99435
2018-10-09T15:05:00.000Z,99434
2018-10-09T15:10:00.000Z,99428
2018-10-09T15:15:00.000Z,99426
2018-10-09T15:20:00.000Z,99425
2018-10-09T15:25:00.000Z,99440
2018-10-09T15:30:00.000Z,99429
2018-10-09T15:35:00.000Z,99439
2018-10-09T15:40:00.000Z,99448
2018-10-09T15:45:00.000Z,99447
2018-10-09T15:50:00.000Z,99460
2018-10-09T15:55:00.000Z,99459
2018-10-09T16:00:00.000Z,99451
2018-10-09T16:05:00.000Z,99447
2018-10-09T16:10:00.000Z,99441
2018-10-09T16:15:00.000Z,99447
2018-10-09T16:21:00.000Z,99449
2018-10-09T16:26:00.000Z,99454
2018-10-09T16:31:00.000Z,99452
2018-10-09T16:36:00.000Z,99442
2018-10-09T16:41:00.000Z,99454
2018-10-09T16:46:00.000Z,99453
2018-10-09T16:51:00.000Z,99459
2018-10-09T16:56:00.000Z,99452
2018-10-09T17:01:00.000Z,99445
2018-10-09T17:06:00.000Z,99452
2018-10-09T17:11:00.000Z,99461
2018-10-09T17:16:00.000Z,99459
2018-10-09T17:21:00.000Z,99467
2018-10-09T17:26:00.000Z,99462
2018-10-09T17:31:00.000Z,99451
2018-10-09T17:36:00.000Z,99459
2018-10-09T17:41:00.000Z,99444
2018-10-09T17:46:00.000Z,99439
2018-10-09T17:51:00.000Z,99441
2018-10-09T17:56:00.000Z,99447
2018-10-09T18:01:00.000Z,99440
2018-10-09T18:06:00.000Z,99432
2018-10-09T18:11:00.000Z,99448
2018-10-09T18:16:00.000Z,99445
2018-10-09T18:21:00.000Z,99447
2018-10-09T18:26:00.000Z,99465
2018-10-09T18:31:00.000Z,99456
2018-10-09T18:36:00.000Z,99465
2018-10-09T18:41:00.000Z,99469
2018-10-09T18:46:00.000Z,99465
2018-10-09T18:51:00.000Z,99466
2018-10-09T18:56:00.000Z,99469
2018-10-09T19:01:00.000Z,99481
2018-10-09T19:06:00.000Z,99484
2018-10-09T19:11:00.000Z,99498
2018-10-09T19:16:00.000Z,99491
2018-10-09T19:21:00.000Z,99510
2018-10-09T19:26:00.000Z,99512
2018-10-09T19:31:00.000Z,99518
2018-10-09T19:36:00.000Z,99539
2018-10-09T19:41:00.000Z,99532
2018-10-09T19:46:00.000Z,99537
2018-10-09T19:51:00.000Z,99540
2018-10-09T19:56:00.000Z,99532
2018-10-09T20:01:00.000Z,99528
2018-10-09T20:06:00.000Z,99528
2018-10-09T20:11:00.000Z,99533
2018-10-09T20:16:00.000Z,99526
2018-10-09T20:21:00.000Z,99527
2018-10-09T20:26:00.000Z,99536
2018-10-09T20:31:00.000Z,99534
2018-10-09T20:36:00.000Z,99528
2018-10-09T20:41:00.000Z,99532
2018-10-09T20:46:00.000Z,99525
2018-10-09T20:51:00.000Z,99525
2018-10-09T20:56:00.000Z,99531
2018-10-09T21:01:00.000Z,99533
2018-10-09T21:06:00.000Z,99526
2018-10-09T21:11:00.000Z,99534
2018-10-09T21:16:00.000Z,99525
2018-10-09T21:21:00.000Z,99532
2018-10-09T21:26:00.000Z,99529
2018-10-09T21:31:00.000Z,99538
2018-10-09T21:36:00.000Z,99527
2018-10-09T21:41:00.000Z,99518
2018-10-09T21:46:00.000Z,99531
2018-10-09T21:51:00.000Z,99521
2018-10-09T21:56:00.000Z,99520
2018-10-09T22:01:00.000Z,99522
2018-10-09T22:06:00.000Z,99519
2018-10-09T22:11:00.000Z,99523
2018-10-09T22:17:00.000Z,99532
2018-10-09T22:22:00.000Z,99539
2018-10-09T22:27:00.000Z,99525
2018-10-09T22:32:00.000Z,99514
2018-10-09T22:37:00.000Z,99520
2018-10-09T22:42:00.000Z,99520
2018-10-09T22:47:00.000Z,99525
2018-10-09T22:52:00.000Z,99534
2018-10-09T22:57:00.000Z,99538
2018-10-09T23:02:00.000Z,99548
2018-10-09T23:07:00.000Z,99551
2018-10-09T23:12:00.000Z,99553
2018-10-09T23:17:00.000Z,99549
2018-10-09T23:22:00.000Z,99544
2018-10-09T23:27:00.000Z,99539
2018-10-09T23:32:00.000Z,99545
2018-10-09T23:37:00.000Z,99540
2018-10-09T23:42:00.000Z,99550
2018-10-09T23:47:00.000Z,99536
2018-10-09T23:52:00.000Z,99533
2018-10-09T23:57:00.000Z,99538
